Portada
METAR-TAF:

METAR-TAF

Aeroports :

Guernsey,

latitud: 49-26N, longitud: 002-36W, altitud: 102 m

Observació

L'informe es va fer fa 27 minuts, a les 08:50 UTC
Vent 2 kt amb direcció variable
Temperatura 18°C
Humitat 77%
Pressió 1027 hPa
Visibilitat 10 km o més
Escasses núvols a una alçada de 1000 ft

METAR: EGJB 220850Z VRB02KT 9999 FEW010 18/14 Q1027

Hora: 10:17 (09:17 UTC)

Pronòstic

L'informe es va fer fa 1 hora i 18 minuts, a les 07:59 UTC
Pronòstic vàlid del 22 a les 09 UTC al 22 a les 18 UTC
Vent 4 kt del Nord-Oest
Visibilitat 10 km o més
Escasses núvols a una alçada de 1200 ft

TAF: EGJB 220759Z 2209/2218 31004KT 9999 FEW012

Observacions i pronòstics meteorològics de més de 4000 aeroports (METAR i TAF).

Les estacions disponibles són els punts grocs i vermells al mapa.

Posi el ratolí al punt desitjat per veure el nom de l'estació.

Feu clic per veure les observacions i els pronòstics meteorològics.

Per canviar el mapa: feu clic els botons verds amb una creu de color negre per apropar; al botó verd amb un guió per allunyar la imatge; o en les fletxes verdes per a mapes adjacents.


METAR-TAF: